Capitol Logistics 1904




LFMN
Nice-Côte d'Azur Airport
Nice, FR
EDDK
Cologne Bonn Airport
Cologne, DE

Activity Log

Date Flight Route Aircraft Duration
No Flights Yet

Route Details

Aircraft Information
Group: European Fleet
Types: A30F,A31F,B738
Route Data
Demand: D
Distance: 433nm
Duration: 1h 44m
Recm'd Route: BASI6A BASIP Y15 ANAKI P860 DEVOX ABESI N851 ROLSA Z162 ZUE T163 KOVAN T844 ASKIK T840 GULKO GULK14
Origin Wx: LFMN 242200Z 31005KT 240V340 9999 -RA FEW060 SCT100 BKN130 20/17 Q1008 NOSIG
Dest. Wx: EDDK 242150Z AUTO 14004KT 100V170 9999 SCT047 11/09 Q1012 NOSIG
Notes:

Financial History
Total Freight: 0lbs
Average Load: 0lbs/flt
Fuel Used: 0lbs
Avg. Fuel Used: 0lbs/flt
Fuel Expense: $0
Avg. Fuel Expense: $0
Avg. Fuel Cost: $0/lbs
Total Gross Income: $0
Pilot Pay: $0
Total Expenses: $0
Total Revenue: $0
Average Revenue: $0